createdAt,value
2023-05-18T00:01:23.069Z,6.38
2023-05-18T00:03:50.058Z,5.20
2023-05-18T00:06:17.680Z,6.53
2023-05-18T00:08:44.602Z,4.60
2023-05-18T00:11:11.483Z,5.95
2023-05-18T00:13:38.374Z,6.38
2023-05-18T00:16:05.416Z,5.10
2023-05-18T00:18:34.417Z,4.32
2023-05-18T00:21:02.158Z,4.88
2023-05-18T00:23:31.237Z,4.32
2023-05-18T00:25:59.527Z,4.80
2023-05-18T00:28:26.606Z,5.35
2023-05-18T00:30:54.524Z,5.85
2023-05-18T00:33:22.526Z,5.60
2023-05-18T00:35:49.442Z,5.55
2023-05-18T00:38:16.526Z,5.60
2023-05-18T00:40:44.188Z,5.65
2023-05-18T00:43:11.915Z,5.45
2023-05-18T00:45:38.876Z,5.82
2023-05-18T00:48:06.645Z,4.45
2023-05-18T00:50:33.831Z,5.00
2023-05-18T00:53:00.997Z,4.93
2023-05-18T00:55:28.801Z,5.00
2023-05-18T00:57:57.222Z,4.65
2023-05-18T01:00:24.591Z,6.78
2023-05-18T01:02:53.160Z,5.40
2023-05-18T01:05:22.420Z,4.88
2023-05-18T01:07:50.632Z,5.18
2023-05-18T01:10:19.960Z,5.65
2023-05-18T01:13:03.045Z,5.25
2023-05-18T01:15:35.767Z,6.18
2023-05-18T01:18:10.621Z,5.60
2023-05-18T01:20:46.608Z,5.70
2023-05-18T01:23:29.890Z,5.25
2023-05-18T01:25:56.988Z,5.05
2023-05-18T01:28:28.669Z,5.75
2023-05-18T01:30:56.908Z,5.60
2023-05-18T01:33:25.286Z,5.72
2023-05-18T01:35:52.408Z,6.32
2023-05-18T01:38:22.681Z,7.82
2023-05-18T01:41:08.403Z,7.75
2023-05-18T01:43:37.300Z,7.57
2023-05-18T01:46:48.421Z,7.03
2023-05-18T01:49:40.243Z,6.93
2023-05-18T01:52:11.601Z,6.93
2023-05-18T01:54:44.558Z,7.40
2023-05-18T01:57:12.371Z,7.93
2023-05-18T01:59:39.901Z,7.45
2023-05-18T02:02:07.154Z,6.88
2023-05-18T02:04:36.248Z,7.18
2023-05-18T02:07:05.186Z,6.65
2023-05-18T02:09:32.327Z,6.03
2023-05-18T02:11:59.432Z,5.72
2023-05-18T02:14:26.718Z,5.38
2023-05-18T02:16:53.569Z,4.95
2023-05-18T02:19:22.386Z,4.90
2023-05-18T02:21:49.386Z,5.13
2023-05-18T02:24:17.863Z,4.70
2023-05-18T02:26:45.076Z,4.35
2023-05-18T02:29:14.783Z,5.00
2023-05-18T02:31:41.946Z,4.32
2023-05-18T02:34:09.304Z,4.38
2023-05-18T02:36:42.911Z,4.60
2023-05-18T02:39:11.031Z,4.20
2023-05-18T02:41:38.272Z,4.40
2023-05-18T02:44:05.969Z,5.55
2023-05-18T02:46:33.285Z,4.40
2023-05-18T02:49:00.538Z,4.70
2023-05-18T02:51:28.462Z,5.10
2023-05-18T02:53:55.573Z,4.65
2023-05-18T02:56:22.807Z,4.35
2023-05-18T02:58:58.408Z,5.32
2023-05-18T03:01:44.539Z,5.30
2023-05-18T03:04:11.483Z,5.63
2023-05-18T03:06:46.721Z,9.57
2023-05-18T03:09:15.929Z,8.38
2023-05-18T03:11:44.940Z,8.05
2023-05-18T03:14:12.129Z,5.10
2023-05-18T03:16:39.702Z,6.00
2023-05-18T03:19:11.711Z,6.40
2023-05-18T03:21:41.723Z,4.10
2023-05-18T03:24:09.289Z,3.80
2023-05-18T03:26:41.970Z,4.03
2023-05-18T03:29:09.255Z,4.05
2023-05-18T03:31:36.459Z,3.90
2023-05-18T03:34:03.502Z,4.00
2023-05-18T03:36:30.399Z,4.20
2023-05-18T03:38:57.260Z,5.75
2023-05-18T03:41:25.016Z,5.53
2023-05-18T03:43:54.047Z,4.78
2023-05-18T03:46:22.699Z,4.20
2023-05-18T03:48:49.858Z,3.92
2023-05-18T03:51:21.406Z,3.92
2023-05-18T03:53:48.530Z,17.27
2023-05-18T03:56:15.993Z,5.85
2023-05-18T03:58:44.517Z,5.20
2023-05-18T04:01:11.580Z,4.97
2023-05-18T04:03:38.557Z,3.80
2023-05-18T04:06:06.598Z,4.13
2023-05-18T04:08:34.542Z,4.45
2023-05-18T04:11:01.726Z,4.45
2023-05-18T04:13:29.452Z,4.18
2023-05-18T04:15:58.651Z,4.20
2023-05-18T04:18:30.466Z,4.40
2023-05-18T04:20:57.533Z,3.85
2023-05-18T04:23:24.419Z,4.68
2023-05-18T04:25:51.673Z,4.05
2023-05-18T04:28:19.384Z,3.67
2023-05-18T04:30:48.032Z,4.82
2023-05-18T04:33:16.385Z,5.13
2023-05-18T04:35:44.858Z,4.60
2023-05-18T04:38:12.681Z,4.28
2023-05-18T04:40:42.844Z,4.38
2023-05-18T04:45:39.178Z,3.70
2023-05-18T04:48:06.996Z,3.50
2023-05-18T04:50:35.974Z,3.50
2023-05-18T04:53:07.912Z,3.85
2023-05-18T04:55:35.554Z,3.38
2023-05-18T04:58:10.589Z,3.70
2023-05-18T05:00:37.751Z,3.55
2023-05-18T05:03:05.087Z,3.80
2023-05-18T05:05:32.886Z,3.08
2023-05-18T05:08:00.018Z,3.45
2023-05-18T05:10:28.362Z,3.40
2023-05-18T05:12:55.600Z,3.25
2023-05-18T05:15:22.692Z,3.63
2023-05-18T05:17:51.261Z,3.20
2023-05-18T05:20:18.928Z,3.38
2023-05-18T05:22:46.206Z,3.00
2023-05-18T05:25:16.530Z,3.13
2023-05-18T05:27:43.575Z,3.22
2023-05-18T05:30:11.347Z,2.90
2023-05-18T05:32:39.665Z,2.75
2023-05-18T05:35:07.383Z,2.85
2023-05-18T05:37:35.988Z,2.75
2023-05-18T05:40:06.274Z,3.00
2023-05-18T05:42:37.469Z,2.58
2023-05-18T05:45:04.804Z,2.80
2023-05-18T05:47:37.215Z,2.78
2023-05-18T05:50:04.644Z,2.75
2023-05-18T05:52:32.128Z,2.92
2023-05-18T05:54:59.502Z,2.92
2023-05-18T05:57:27.392Z,2.72
2023-05-18T05:59:54.276Z,2.72
2023-05-18T06:02:21.352Z,2.78
2023-05-18T06:04:48.900Z,2.83
2023-05-18T06:07:15.825Z,2.83
2023-05-18T06:09:43.288Z,2.42
2023-05-18T06:12:10.832Z,3.00
2023-05-18T06:14:38.546Z,2.80
2023-05-18T06:17:05.775Z,3.10
2023-05-18T06:19:33.485Z,3.45
2023-05-18T06:22:00.712Z,2.80
2023-05-18T06:24:31.317Z,3.60
2023-05-18T06:27:19.342Z,7.32
2023-05-18T06:30:11.267Z,4.13
2023-05-18T06:32:49.904Z,4.07
2023-05-18T06:35:16.860Z,3.33
2023-05-18T06:37:45.459Z,3.85
2023-05-18T06:40:13.958Z,3.67
2023-05-18T06:42:41.800Z,7.03
2023-05-18T06:45:36.998Z,7.57
2023-05-18T06:48:15.412Z,11.10
2023-05-18T06:50:42.416Z,3.20
2023-05-18T06:53:09.415Z,4.15
2023-05-18T06:55:36.404Z,4.53
2023-05-18T06:58:03.382Z,5.22
2023-05-18T07:00:30.646Z,11.80
2023-05-18T07:02:57.706Z,2.33
2023-05-18T07:05:24.704Z,2.40
2023-05-18T07:07:51.880Z,2.40
2023-05-18T07:10:18.743Z,2.65
2023-05-18T07:12:45.630Z,2.60
2023-05-18T07:15:12.517Z,4.18
2023-05-18T07:17:39.506Z,4.28
2023-05-18T07:20:07.535Z,2.65
2023-05-18T07:22:35.088Z,2.40
2023-05-18T07:25:02.026Z,2.50
2023-05-18T07:31:54.287Z,2.13
2023-05-18T07:34:21.537Z,2.35
2023-05-18T07:36:48.404Z,9.55
2023-05-18T07:39:19.458Z,7.00
2023-05-18T07:41:48.564Z,5.05
2023-05-18T07:44:16.019Z,4.75
2023-05-18T07:46:43.607Z,4.00
2023-05-18T07:49:10.607Z,2.40
2023-05-18T07:51:37.489Z,4.47
2023-05-18T07:54:05.391Z,3.13
2023-05-18T07:56:32.261Z,8.18
2023-05-18T07:58:59.108Z,8.23
2023-05-18T08:01:28.355Z,10.10
2023-05-18T08:03:55.287Z,10.63
2023-05-18T08:06:22.586Z,3.65
2023-05-18T08:08:49.610Z,7.97
2023-05-18T08:11:16.497Z,2.70
2023-05-18T08:13:43.407Z,3.90
2023-05-18T08:16:11.645Z,5.72
2023-05-18T08:18:39.134Z,2.50
2023-05-18T08:21:09.659Z,3.25
2023-05-18T08:23:37.552Z,6.80
2023-05-18T08:26:04.933Z,2.10
2023-05-18T08:28:32.437Z,2.47
2023-05-18T08:30:59.298Z,4.50
2023-05-18T08:33:26.367Z,10.38
2023-05-18T08:35:53.799Z,3.97
2023-05-18T08:38:20.812Z,3.10
2023-05-18T08:40:55.286Z,2.80
2023-05-18T08:43:30.079Z,2.70
2023-05-18T08:46:20.137Z,4.55
2023-05-18T08:51:19.945Z,4.90
2023-05-18T08:53:52.829Z,8.50
2023-05-18T08:56:23.232Z,3.85
2023-05-18T08:58:54.652Z,1.58
2023-05-18T09:01:28.432Z,5.10
2023-05-18T09:03:59.947Z,1.95
2023-05-18T09:06:28.572Z,2.20
2023-05-18T09:08:59.794Z,1.98
2023-05-18T09:11:28.349Z,1.73
2023-05-18T09:13:55.633Z,1.70
2023-05-18T09:16:22.682Z,2.28
2023-05-18T09:18:49.664Z,2.63
2023-05-18T09:21:16.658Z,1.90
2023-05-18T09:23:44.637Z,2.08
2023-05-18T09:26:13.439Z,4.43
2023-05-18T09:28:42.835Z,1.85
2023-05-18T09:31:16.966Z,1.42
2023-05-18T09:33:45.750Z,1.65
2023-05-18T09:36:15.318Z,2.83
2023-05-18T09:38:46.322Z,3.22
2023-05-18T09:41:16.529Z,2.75
2023-05-18T09:43:44.549Z,2.35
2023-05-18T09:46:13.344Z,2.63
2023-05-18T09:48:46.087Z,3.60
2023-05-18T09:51:16.995Z,2.38
2023-05-18T09:54:08.570Z,2.03
2023-05-18T09:56:37.440Z,1.38
2023-05-18T09:59:12.148Z,2.33
2023-05-18T10:02:02.734Z,4.70
2023-05-18T10:04:41.337Z,1.92
2023-05-18T10:07:16.259Z,1.95
2023-05-18T10:09:45.239Z,2.00
2023-05-18T10:12:18.187Z,7.38
2023-05-18T10:14:46.261Z,2.00
2023-05-18T10:17:16.412Z,2.92
2023-05-18T10:19:45.394Z,2.30
2023-05-18T10:22:16.400Z,2.00
2023-05-18T10:24:46.262Z,2.10
2023-05-18T10:27:14.854Z,2.05
2023-05-18T10:29:42.040Z,1.95
2023-05-18T10:32:12.990Z,1.88
2023-05-18T10:34:41.982Z,2.30
2023-05-18T10:37:12.203Z,2.00
2023-05-18T10:39:45.780Z,1.67
2023-05-18T10:42:16.428Z,2.45
2023-05-18T10:44:45.986Z,2.50
2023-05-18T10:47:15.500Z,2.30
2023-05-18T10:49:48.995Z,2.30
2023-05-18T10:52:18.002Z,2.20
2023-05-18T10:54:46.212Z,2.40
2023-05-18T10:57:20.068Z,3.00
2023-05-18T10:59:48.605Z,1.70
2023-05-18T11:02:18.737Z,2.33
2023-05-18T11:04:48.113Z,3.10
2023-05-18T11:07:15.734Z,2.80
2023-05-18T11:09:43.617Z,3.03
2023-05-18T11:12:15.279Z,2.50
2023-05-18T11:14:49.700Z,3.35
2023-05-18T11:17:25.373Z,3.05
2023-05-18T11:20:13.526Z,2.00
2023-05-18T11:22:52.729Z,2.25
2023-05-18T11:25:31.463Z,2.38
2023-05-18T11:28:06.806Z,1.80
2023-05-18T11:30:33.834Z,1.90
2023-05-18T11:33:10.743Z,2.50
2023-05-18T11:36:03.153Z,3.35
2023-05-18T11:38:49.496Z,2.30
2023-05-18T11:41:46.910Z,2.50
2023-05-18T11:44:16.569Z,1.80
2023-05-18T11:46:58.900Z,2.50
2023-05-18T11:49:31.701Z,2.50
2023-05-18T11:52:05.307Z,3.30
2023-05-18T11:54:43.774Z,2.55
2023-05-18T11:57:11.314Z,3.58
2023-05-18T11:59:41.416Z,2.80
2023-05-18T12:02:11.898Z,2.80
2023-05-18T12:05:00.429Z,2.45
2023-05-18T12:07:29.432Z,2.00
2023-05-18T12:10:02.019Z,1.92
2023-05-18T12:12:29.581Z,2.53
2023-05-18T12:15:10.437Z,3.10
2023-05-18T12:17:48.001Z,4.22
2023-05-18T12:20:16.791Z,4.30
2023-05-18T12:22:46.384Z,4.38
2023-05-18T12:25:13.677Z,4.75
2023-05-18T12:27:42.756Z,4.20
2023-05-18T12:30:38.735Z,7.15
2023-05-18T12:33:07.106Z,5.28
2023-05-18T12:35:34.549Z,4.88
2023-05-18T12:38:02.255Z,5.15
2023-05-18T12:40:46.773Z,5.18
2023-05-18T12:43:14.054Z,3.50
2023-05-18T12:45:43.993Z,2.45
2023-05-18T12:48:13.275Z,3.50
2023-05-18T12:50:53.651Z,3.05
2023-05-18T12:53:20.974Z,3.15
2023-05-18T12:55:58.834Z,3.08
2023-05-18T13:00:52.468Z,3.03
2023-05-18T13:03:22.467Z,4.00
2023-05-18T13:06:09.731Z,3.17
2023-05-18T13:08:37.321Z,3.05
2023-05-18T13:11:13.851Z,3.60
2023-05-18T13:14:00.872Z,3.10
2023-05-18T13:16:30.358Z,2.47
2023-05-18T13:18:59.842Z,2.92
2023-05-18T13:21:27.337Z,3.28
2023-05-18T13:23:54.238Z,2.75
2023-05-18T13:26:22.649Z,2.75
2023-05-18T13:28:52.588Z,2.88
2023-05-18T13:31:20.973Z,3.25
2023-05-18T13:33:49.250Z,2.88
2023-05-18T13:36:17.052Z,2.72
2023-05-18T13:38:44.160Z,2.88
2023-05-18T13:41:12.454Z,2.25
2023-05-18T13:43:39.373Z,2.90
2023-05-18T13:46:06.319Z,3.63
2023-05-18T13:48:33.287Z,2.60
2023-05-18T13:51:00.324Z,3.15
2023-05-18T13:53:27.400Z,3.47
2023-05-18T13:55:54.264Z,2.00
2023-05-18T13:58:21.128Z,2.20
2023-05-18T14:00:48.171Z,2.50
2023-05-18T14:03:15.427Z,2.20
2023-05-18T14:05:42.494Z,2.58
2023-05-18T14:08:09.546Z,2.30
2023-05-18T14:10:36.523Z,2.08
2023-05-18T14:13:03.382Z,3.03
2023-05-18T14:15:30.233Z,2.88
2023-05-18T14:17:57.149Z,2.47
2023-05-18T14:20:23.998Z,2.60
2023-05-18T14:22:51.051Z,2.80
2023-05-18T14:25:17.956Z,2.80
2023-05-18T14:27:44.914Z,2.50
2023-05-18T14:30:12.215Z,2.15
2023-05-18T14:32:39.125Z,2.50
2023-05-18T14:35:06.520Z,2.70
2023-05-18T14:37:33.421Z,3.00
2023-05-18T14:40:00.380Z,4.85
2023-05-18T14:42:27.325Z,4.40
2023-05-18T14:44:54.141Z,2.55
2023-05-18T14:47:22.334Z,2.15
2023-05-18T14:49:49.306Z,2.00
2023-05-18T14:52:16.225Z,1.98
2023-05-18T14:54:43.170Z,2.03
2023-05-18T14:57:10.084Z,2.00
2023-05-18T14:59:37.097Z,2.03
2023-05-18T15:02:04.244Z,2.25
2023-05-18T15:04:31.075Z,1.65
2023-05-18T15:06:57.920Z,2.30
2023-05-18T15:09:26.716Z,3.05
2023-05-18T15:11:54.012Z,2.22
2023-05-18T15:14:20.881Z,3.13
2023-05-18T15:16:47.932Z,2.75
2023-05-18T15:19:14.876Z,2.80
2023-05-18T15:21:41.770Z,2.58
2023-05-18T15:24:08.711Z,2.53
2023-05-18T15:26:35.933Z,2.65
2023-05-18T15:29:02.815Z,1.98
2023-05-18T15:31:29.780Z,3.00
2023-05-18T15:33:56.634Z,3.55
2023-05-18T15:36:24.254Z,2.67
2023-05-18T15:38:51.254Z,2.20
2023-05-18T15:41:19.296Z,1.70
2023-05-18T15:43:46.855Z,1.95
2023-05-18T15:46:13.827Z,2.20
2023-05-18T15:48:40.832Z,2.13
2023-05-18T15:51:07.771Z,2.03
2023-05-18T15:53:34.676Z,2.00
2023-05-18T15:56:01.997Z,1.90
2023-05-18T15:58:28.916Z,1.80
2023-05-18T16:00:55.881Z,1.90
2023-05-18T16:03:23.029Z,1.67
2023-05-18T16:05:50.339Z,1.75
2023-05-18T16:08:17.270Z,2.00
2023-05-18T16:10:44.139Z,1.92
2023-05-18T16:13:11.096Z,1.92
2023-05-18T16:15:37.972Z,1.77
2023-05-18T16:18:05.236Z,1.80
2023-05-18T16:20:32.481Z,1.55
2023-05-18T16:22:59.639Z,1.77
2023-05-18T16:25:26.771Z,1.63
2023-05-18T16:27:53.758Z,1.80
2023-05-18T16:30:20.637Z,1.60
2023-05-18T16:32:47.580Z,1.67
2023-05-18T16:35:14.549Z,1.77
2023-05-18T16:37:41.474Z,1.73
2023-05-18T16:40:09.069Z,1.80
2023-05-18T16:42:36.059Z,1.90
2023-05-18T16:45:03.134Z,2.22
2023-05-18T16:47:32.779Z,2.00
2023-05-18T16:50:00.624Z,1.58
2023-05-18T16:52:28.059Z,1.75
2023-05-18T16:54:54.952Z,2.75
2023-05-18T16:57:22.251Z,3.50
2023-05-18T16:59:49.416Z,2.63
2023-05-18T17:02:17.788Z,3.10
2023-05-18T17:04:49.796Z,2.22
2023-05-18T17:07:17.289Z,2.22
2023-05-18T17:09:44.639Z,2.30
2023-05-18T17:12:12.029Z,1.83
2023-05-18T17:14:39.051Z,4.72
2023-05-18T17:17:06.953Z,2.80
2023-05-18T17:19:35.287Z,2.40
2023-05-18T17:22:03.573Z,2.22
2023-05-18T17:24:31.039Z,2.00
2023-05-18T17:26:58.272Z,2.35
2023-05-18T17:29:25.377Z,5.00
2023-05-18T17:31:52.244Z,6.70
2023-05-18T17:34:19.261Z,4.82
2023-05-18T17:36:46.554Z,4.00
2023-05-18T17:39:15.831Z,3.13
2023-05-18T17:41:43.907Z,2.38
2023-05-18T17:44:14.218Z,2.55
2023-05-18T17:46:41.958Z,1.45
2023-05-18T17:49:09.143Z,1.80
2023-05-18T17:51:36.380Z,2.30
2023-05-18T17:54:03.570Z,1.75
2023-05-18T17:56:31.710Z,2.10
2023-05-18T17:58:59.352Z,2.05
2023-05-18T18:01:27.371Z,1.90
2023-05-18T18:03:55.806Z,1.90
2023-05-18T18:06:23.167Z,1.70
2023-05-18T18:08:51.557Z,1.70
2023-05-18T18:11:18.594Z,1.65
2023-05-18T18:13:45.585Z,1.90
2023-05-18T18:16:12.635Z,2.03
2023-05-18T18:18:39.720Z,1.77
2023-05-18T18:21:06.782Z,1.75
2023-05-18T18:23:37.884Z,1.80
2023-05-18T18:26:05.930Z,1.90
2023-05-18T18:28:35.298Z,1.80
2023-05-18T18:31:03.188Z,3.20
2023-05-18T18:33:30.610Z,1.80
2023-05-18T18:35:57.641Z,1.77
2023-05-18T18:38:27.036Z,1.85
2023-05-18T18:40:59.935Z,1.55
2023-05-18T18:43:28.007Z,1.60
2023-05-18T18:45:55.990Z,1.60
2023-05-18T18:48:23.656Z,1.42
2023-05-18T18:50:50.642Z,1.50
2023-05-18T18:53:17.460Z,1.45
2023-05-18T18:55:44.505Z,1.50
2023-05-18T18:58:11.442Z,2.00
2023-05-18T19:00:38.379Z,1.80
2023-05-18T19:03:05.333Z,2.70
2023-05-18T19:05:32.686Z,2.40
2023-05-18T19:08:00.049Z,2.55
2023-05-18T19:10:26.915Z,2.30
2023-05-18T19:12:53.815Z,2.17
2023-05-18T19:15:21.674Z,2.22
2023-05-18T19:17:53.643Z,2.13
2023-05-18T19:20:22.170Z,2.40
2023-05-18T19:22:49.174Z,2.38
2023-05-18T19:25:16.266Z,2.20
2023-05-18T19:27:43.192Z,3.75
2023-05-18T19:30:12.429Z,2.30
2023-05-18T19:32:39.361Z,2.17
2023-05-18T19:35:06.304Z,2.38
2023-05-18T19:37:33.212Z,2.65
2023-05-18T19:40:00.191Z,2.47
2023-05-18T19:42:27.341Z,2.30
2023-05-18T19:44:54.144Z,2.25
2023-05-18T19:47:21.255Z,2.40
2023-05-18T19:49:48.251Z,2.15
2023-05-18T19:52:15.942Z,1.98
2023-05-18T19:54:42.996Z,2.20
2023-05-18T19:57:09.885Z,2.35
2023-05-18T19:59:37.125Z,2.70
2023-05-18T20:02:07.004Z,2.40
2023-05-18T20:04:34.621Z,2.15
2023-05-18T20:07:01.831Z,2.30
2023-05-18T20:09:29.464Z,2.40
2023-05-18T20:11:56.623Z,2.70
2023-05-18T20:14:23.921Z,2.45
2023-05-18T20:16:56.155Z,2.58
2023-05-18T20:19:23.335Z,2.40
2023-05-18T20:21:50.372Z,2.58
2023-05-18T20:24:17.236Z,2.38
2023-05-18T20:26:44.361Z,2.63
2023-05-18T20:29:11.446Z,2.67
2023-05-18T20:31:38.601Z,2.60
2023-05-18T20:34:07.145Z,2.80
2023-05-18T20:36:36.005Z,2.80
2023-05-18T20:39:03.986Z,2.83
2023-05-18T20:41:30.800Z,2.90
2023-05-18T20:43:57.751Z,2.88
2023-05-18T20:46:27.634Z,3.03
2023-05-18T20:48:57.684Z,2.63
2023-05-18T20:51:24.805Z,3.10
2023-05-18T20:53:52.016Z,2.70
2023-05-18T20:56:18.971Z,3.20
2023-05-18T20:58:48.661Z,2.83
2023-05-18T21:01:18.943Z,2.35
2023-05-18T21:03:46.112Z,2.72
2023-05-18T21:06:14.120Z,2.55
2023-05-18T21:08:41.624Z,2.70
2023-05-18T21:11:08.552Z,2.88
2023-05-18T21:13:37.082Z,2.50
2023-05-18T21:16:06.787Z,2.67
2023-05-18T21:18:35.179Z,2.40
2023-05-18T21:21:02.620Z,3.17
2023-05-18T21:23:30.868Z,2.70
2023-05-18T21:25:57.790Z,2.70
2023-05-18T21:28:25.128Z,2.75
2023-05-18T21:30:52.935Z,2.95
2023-05-18T21:33:20.384Z,2.90
2023-05-18T21:35:48.035Z,3.55
2023-05-18T21:38:14.869Z,3.33
2023-05-18T21:40:43.806Z,3.30
2023-05-18T21:43:11.087Z,3.50
2023-05-18T21:45:38.841Z,3.60
2023-05-18T21:48:06.310Z,3.72
2023-05-18T21:50:35.072Z,4.43
2023-05-18T21:53:06.051Z,4.03
2023-05-18T21:55:33.824Z,3.58
2023-05-18T21:58:00.826Z,4.80
2023-05-18T22:00:28.713Z,4.63
2023-05-18T22:02:55.728Z,4.07
2023-05-18T22:05:22.812Z,4.20
2023-05-18T22:07:49.926Z,4.57
2023-05-18T22:10:18.169Z,3.88
2023-05-18T22:12:45.554Z,4.38
2023-05-18T22:15:12.803Z,5.00
2023-05-18T22:17:40.354Z,4.38
2023-05-18T22:20:11.734Z,4.65
2023-05-18T22:22:40.493Z,4.63
2023-05-18T22:25:07.821Z,4.43
2023-05-18T22:27:36.653Z,4.32
2023-05-18T22:30:06.270Z,4.90
2023-05-18T22:32:33.356Z,4.35
2023-05-18T22:35:03.562Z,4.40
2023-05-18T22:37:30.584Z,4.57
2023-05-18T22:39:57.451Z,5.18
2023-05-18T22:42:24.364Z,4.93
2023-05-18T22:44:51.469Z,4.97
2023-05-18T22:47:21.524Z,5.00
2023-05-18T22:49:49.315Z,5.10
2023-05-18T22:52:18.637Z,5.00
2023-05-18T22:54:45.897Z,5.50
2023-05-18T22:57:13.364Z,5.15
2023-05-18T22:59:40.288Z,5.55
2023-05-18T23:02:07.389Z,5.45
2023-05-18T23:04:35.362Z,4.97
2023-05-18T23:07:04.213Z,5.00
2023-05-18T23:09:31.395Z,5.20
2023-05-18T23:11:59.718Z,5.80
2023-05-18T23:14:31.344Z,5.22
2023-05-18T23:16:58.599Z,5.50
2023-05-18T23:19:27.007Z,5.28
2023-05-18T23:21:54.108Z,5.45
2023-05-18T23:24:21.549Z,4.93
2023-05-18T23:26:48.566Z,4.88
2023-05-18T23:29:15.502Z,5.35
2023-05-18T23:31:42.341Z,4.65
2023-05-18T23:34:09.555Z,5.40
2023-05-18T23:36:39.843Z,5.32
2023-05-18T23:39:07.343Z,5.68
2023-05-18T23:41:36.142Z,5.00
2023-05-18T23:44:03.514Z,5.43
2023-05-18T23:46:31.830Z,5.53
2023-05-18T23:48:59.841Z,5.03
2023-05-18T23:51:30.024Z,5.13
2023-05-18T23:53:58.536Z,5.53
2023-05-18T23:56:25.593Z,5.05
2023-05-18T23:58:52.698Z,5.32
